Lena, Ohio
Current Conditions -  °F | °C
As of 7:50 PM on Friday 24 Oct 2014 (Local Time) from KEDJ Reporting Station
Broken Clouds Broken Clouds  
Wind Chill: 54°   Ceiling: 4100
Heat Index: 54°   Visibility: 10mi
Dew Point: 37°   Wind: 0mph
Humidity: 54%   Direction: NA
Pressure: 30.03"   Gusts: NA
Location:  40.1698°N, 84.0228°W
Report Text: KEDJ 242350Z AUTO 00000KT 10SM BKN041 12/03 A3003 RMK AO1
Loading
Personal Weather Stations






























Interactive Weather Map
Tropical Storm Tracking
New forecast layout! Learn more

10-Day Weather Forecast

Advertisements
Track Severe Weather on mobile